sensor_id;sensor_type;location;lat;lon;timestamp;pressure;altitude;pressure_sealevel;temperature
32039;BMP280;18549;42.286;22.688;2023-08-08T00:01:37;95459.22;;;24.81
32039;BMP280;18549;42.286;22.688;2023-08-08T00:04:08;95466.37;;;24.78
32039;BMP280;18549;42.286;22.688;2023-08-08T00:06:36;95467.56;;;24.75
32039;BMP280;18549;42.286;22.688;2023-08-08T00:09:04;95468.88;;;24.71
32039;BMP280;18549;42.286;22.688;2023-08-08T00:11:32;95467.22;;;24.57
32039;BMP280;18549;42.286;22.688;2023-08-08T00:14:00;95466.03;;;24.53
32039;BMP280;18549;42.286;22.688;2023-08-08T00:16:28;95472.06;;;24.52
32039;BMP280;18549;42.286;22.688;2023-08-08T00:22:00;95474.19;;;24.49
32039;BMP280;18549;42.286;22.688;2023-08-08T00:24:42;95475.56;;;24.52
32039;BMP280;18549;42.286;22.688;2023-08-08T00:27:25;95475.56;;;24.52
32039;BMP280;18549;42.286;22.688;2023-08-08T00:29:58;95479.06;;;24.51
32039;BMP280;18549;42.286;22.688;2023-08-08T00:32:40;95477.91;;;24.53
32039;BMP280;18549;42.286;22.688;2023-08-08T00:35:12;95475.59;;;24.58
32039;BMP280;18549;42.286;22.688;2023-08-08T00:37:45;95484.91;;;24.51
32039;BMP280;18549;42.286;22.688;2023-08-08T00:40:13;95486.03;;;24.42
32039;BMP280;18549;42.286;22.688;2023-08-08T00:42:42;95486.31;;;24.33
32039;BMP280;18549;42.286;22.688;2023-08-08T00:45:12;95486.16;;;24.34
32039;BMP280;18549;42.286;22.688;2023-08-08T00:47:53;95475.06;;;24.35
32039;BMP280;18549;42.286;22.688;2023-08-08T00:50:27;95482.66;;;24.35
32039;BMP280;18549;42.286;22.688;2023-08-08T00:53:11;95476.44;;;24.38
32039;BMP280;18549;42.286;22.688;2023-08-08T00:55:57;95473.91;;;24.38
32039;BMP280;18549;42.286;22.688;2023-08-08T00:58:29;95486.03;;;24.42
32039;BMP280;18549;42.286;22.688;2023-08-08T01:00:58;95488.72;;;24.41
32039;BMP280;18549;42.286;22.688;2023-08-08T01:03:28;95494.16;;;24.38
32039;BMP280;18549;42.286;22.688;2023-08-08T01:06:00;95498.03;;;24.34
32039;BMP280;18549;42.286;22.688;2023-08-08T01:08:39;95491.59;;;24.31
32039;BMP280;18549;42.286;22.688;2023-08-08T01:11:10;95497.19;;;24.27
32039;BMP280;18549;42.286;22.688;2023-08-08T01:13:38;95508.88;;;24.28
32039;BMP280;18549;42.286;22.688;2023-08-08T01:16:07;95497.59;;;24.30
32039;BMP280;18549;42.286;22.688;2023-08-08T01:18:37;95500.72;;;24.32
32039;BMP280;18549;42.286;22.688;2023-08-08T01:21:05;95496.44;;;24.33
32039;BMP280;18549;42.286;22.688;2023-08-08T01:23:47;95507.31;;;24.27
32039;BMP280;18549;42.286;22.688;2023-08-08T01:26:21;95511.78;;;24.25
32039;BMP280;18549;42.286;22.688;2023-08-08T01:28:52;95513.53;;;24.24
32039;BMP280;18549;42.286;22.688;2023-08-08T01:31:21;95518.13;;;24.21
32039;BMP280;18549;42.286;22.688;2023-08-08T01:33:49;95509.94;;;24.19
32039;BMP280;18549;42.286;22.688;2023-08-08T01:36:22;95514.59;;;24.16
32039;BMP280;18549;42.286;22.688;2023-08-08T01:38:54;95520.19;;;24.11
32039;BMP280;18549;42.286;22.688;2023-08-08T01:41:27;95521.41;;;24.15
32039;BMP280;18549;42.286;22.688;2023-08-08T01:43:55;95526.28;;;24.17
32039;BMP280;18549;42.286;22.688;2023-08-08T01:46:22;95538.38;;;24.21
32039;BMP280;18549;42.286;22.688;2023-08-08T01:48:51;95546.97;;;24.20
32039;BMP280;18549;42.286;22.688;2023-08-08T01:51:19;95545.38;;;24.19
32039;BMP280;18549;42.286;22.688;2023-08-08T01:53:47;95535.63;;;24.16
32039;BMP280;18549;42.286;22.688;2023-08-08T01:56:14;95538.31;;;24.15
32039;BMP280;18549;42.286;22.688;2023-08-08T01:58:44;95534.84;;;24.16
32039;BMP280;18549;42.286;22.688;2023-08-08T02:01:11;95539.47;;;24.12
32039;BMP280;18549;42.286;22.688;2023-08-08T02:03:39;95536.16;;;24.12
32039;BMP280;18549;42.286;22.688;2023-08-08T02:06:06;95531.28;;;24.10
32039;BMP280;18549;42.286;22.688;2023-08-08T02:08:34;95532.78;;;24.05
32039;BMP280;18549;42.286;22.688;2023-08-08T02:11:02;95544.81;;;24.03
32039;BMP280;18549;42.286;22.688;2023-08-08T02:13:29;95530.41;;;24.03
32039;BMP280;18549;42.286;22.688;2023-08-08T02:15:59;95529.63;;;24.03
32039;BMP280;18549;42.286;22.688;2023-08-08T02:18:26;95539.97;;;24.01
32039;BMP280;18549;42.286;22.688;2023-08-08T02:20:54;95540.13;;;24.00
32039;BMP280;18549;42.286;22.688;2023-08-08T02:23:21;95542.06;;;23.98
32039;BMP280;18549;42.286;22.688;2023-08-08T02:25:49;95532.91;;;23.97
32039;BMP280;18549;42.286;22.688;2023-08-08T02:28:16;95537.00;;;23.98
32039;BMP280;18549;42.286;22.688;2023-08-08T02:30:44;95553.31;;;23.95
32039;BMP280;18549;42.286;22.688;2023-08-08T02:33:13;95548.63;;;23.92
32039;BMP280;18549;42.286;22.688;2023-08-08T02:35:41;95554.31;;;23.94
32039;BMP280;18549;42.286;22.688;2023-08-08T02:38:09;95558.37;;;23.95
32039;BMP280;18549;42.286;22.688;2023-08-08T02:40:37;95555.59;;;23.90
32039;BMP280;18549;42.286;22.688;2023-08-08T02:43:06;95561.81;;;23.88
32039;BMP280;18549;42.286;22.688;2023-08-08T02:45:35;95568.03;;;23.85
32039;BMP280;18549;42.286;22.688;2023-08-08T02:48:03;95570.56;;;23.85
32039;BMP280;18549;42.286;22.688;2023-08-08T02:50:32;95560.59;;;23.84
32039;BMP280;18549;42.286;22.688;2023-08-08T02:52:59;95577.91;;;23.81
32039;BMP280;18549;42.286;22.688;2023-08-08T02:55:27;95576.66;;;23.77
32039;BMP280;18549;42.286;22.688;2023-08-08T02:57:55;95577.28;;;23.79
32039;BMP280;18549;42.286;22.688;2023-08-08T03:00:24;95585.81;;;23.78
32039;BMP280;18549;42.286;22.688;2023-08-08T03:02:52;95591.25;;;23.75
32039;BMP280;18549;42.286;22.688;2023-08-08T03:05:20;95585.72;;;23.71
32039;BMP280;18549;42.286;22.688;2023-08-08T03:07:49;95590.78;;;23.71
32039;BMP280;18549;42.286;22.688;2023-08-08T03:10:17;95597.34;;;23.66
32039;BMP280;18549;42.286;22.688;2023-08-08T03:12:44;95599.09;;;23.65
32039;BMP280;18549;42.286;22.688;2023-08-08T03:15:12;95598.31;;;23.65
32039;BMP280;18549;42.286;22.688;2023-08-08T03:17:39;95602.00;;;23.62
32039;BMP280;18549;42.286;22.688;2023-08-08T03:20:08;95608.78;;;23.62
32039;BMP280;18549;42.286;22.688;2023-08-08T03:22:36;95608.97;;;23.60
32039;BMP280;18549;42.286;22.688;2023-08-08T03:25:06;95609.75;;;23.61
32039;BMP280;18549;42.286;22.688;2023-08-08T03:27:34;95618.28;;;23.60
32039;BMP280;18549;42.286;22.688;2023-08-08T03:30:01;95621.25;;;23.49
32039;BMP280;18549;42.286;22.688;2023-08-08T03:32:29;95632.31;;;23.48
32039;BMP280;18549;42.286;22.688;2023-08-08T03:34:56;95629.72;;;23.42
32039;BMP280;18549;42.286;22.688;2023-08-08T03:37:24;95626.81;;;23.45
32039;BMP280;18549;42.286;22.688;2023-08-08T03:39:52;95620.53;;;23.41
32039;BMP280;18549;42.286;22.688;2023-08-08T03:42:22;95627.69;;;23.37
32039;BMP280;18549;42.286;22.688;2023-08-08T03:44:50;95627.69;;;23.37
32039;BMP280;18549;42.286;22.688;2023-08-08T03:47:18;95632.75;;;23.37
32039;BMP280;18549;42.286;22.688;2023-08-08T03:49:47;95634.31;;;23.38
32039;BMP280;18549;42.286;22.688;2023-08-08T03:52:15;95630.81;;;23.39
32039;BMP280;18549;42.286;22.688;2023-08-08T03:54:43;95628.28;;;23.39
32039;BMP280;18549;42.286;22.688;2023-08-08T03:57:10;95628.28;;;23.39
32039;BMP280;18549;42.286;22.688;2023-08-08T03:59:40;95625.50;;;23.34
32039;BMP280;18549;42.286;22.688;2023-08-08T04:02:07;95621.41;;;23.33
32039;BMP280;18549;42.286;22.688;2023-08-08T04:04:35;95633.06;;;23.34
32039;BMP280;18549;42.286;22.688;2023-08-08T04:07:03;95646.34;;;23.36
32039;BMP280;18549;42.286;22.688;2023-08-08T04:09:30;95644.59;;;23.37
32039;BMP280;18549;42.286;22.688;2023-08-08T04:11:58;95639.00;;;23.41
32039;BMP280;18549;42.286;22.688;2023-08-08T04:14:26;95636.69;;;23.40
32039;BMP280;18549;42.286;22.688;2023-08-08T04:16:57;95638.06;;;23.42
32039;BMP280;18549;42.286;22.688;2023-08-08T04:19:24;95634.75;;;23.42
32039;BMP280;18549;42.286;22.688;2023-08-08T04:21:52;95649.13;;;23.41
32039;BMP280;18549;42.286;22.688;2023-08-08T04:24:20;95628.38;;;23.46
32039;BMP280;18549;42.286;22.688;2023-08-08T04:26:47;95627.84;;;23.36
32039;BMP280;18549;42.286;22.688;2023-08-08T04:29:15;95636.56;;;23.33
32039;BMP280;18549;42.286;22.688;2023-08-08T04:31:43;95635.44;;;23.36
32039;BMP280;18549;42.286;22.688;2023-08-08T04:34:12;95638.22;;;23.41
32039;BMP280;18549;42.286;22.688;2023-08-08T04:36:39;95641.81;;;23.46
32039;BMP280;18549;42.286;22.688;2023-08-08T04:39:07;95647.16;;;23.51
32039;BMP280;18549;42.286;22.688;2023-08-08T04:41:35;95646.19;;;23.52
32039;BMP280;18549;42.286;22.688;2023-08-08T04:44:03;95646.47;;;23.57
32039;BMP280;18549;42.286;22.688;2023-08-08T04:46:32;95652.75;;;23.61
32039;BMP280;18549;42.286;22.688;2023-08-08T04:49:00;95652.50;;;23.56
32039;BMP280;18549;42.286;22.688;2023-08-08T04:51:29;95663.91;;;23.52
32039;BMP280;18549;42.286;22.688;2023-08-08T04:53:58;95671.16;;;23.55
32039;BMP280;18549;42.286;22.688;2023-08-08T04:56:25;95678.06;;;23.61
32039;BMP280;18549;42.286;22.688;2023-08-08T04:58:54;95684.25;;;23.58
32039;BMP280;18549;42.286;22.688;2023-08-08T05:01:22;95687.56;;;23.59
32039;BMP280;18549;42.286;22.688;2023-08-08T05:03:49;95686.59;;;23.60
32039;BMP280;18549;42.286;22.688;2023-08-08T05:06:20;95697.75;;;23.51
32039;BMP280;18549;42.286;22.688;2023-08-08T05:08:51;95703.75;;;23.50
32039;BMP280;18549;42.286;22.688;2023-08-08T05:11:20;95710.72;;;23.48
32039;BMP280;18549;42.286;22.688;2023-08-08T05:13:47;95711.75;;;23.39
32039;BMP280;18549;42.286;22.688;2023-08-08T05:16:15;95713.97;;;23.42
32039;BMP280;18549;42.286;22.688;2023-08-08T05:18:43;95714.12;;;23.41
32039;BMP280;18549;42.286;22.688;2023-08-08T05:21:11;95721.59;;;23.34
32039;BMP280;18549;42.286;22.688;2023-08-08T05:23:38;95717.84;;;23.30
32039;BMP280;18549;42.286;22.688;2023-08-08T05:26:08;95712.44;;;23.33
32039;BMP280;18549;42.286;22.688;2023-08-08T05:28:36;95716.81;;;23.39
32039;BMP280;18549;42.286;22.688;2023-08-08T05:31:04;95714.25;;;23.25
32039;BMP280;18549;42.286;22.688;2023-08-08T05:33:32;95721.94;;;23.31
32039;BMP280;18549;42.286;22.688;2023-08-08T05:36:00;95731.78;;;23.26
32039;BMP280;18549;42.286;22.688;2023-08-08T05:38:29;95733.34;;;23.27
32039;BMP280;18549;42.286;22.688;2023-08-08T05:40:56;95736.56;;;23.21
32039;BMP280;18549;42.286;22.688;2023-08-08T05:43:27;95732.16;;;23.23
32039;BMP280;18549;42.286;22.688;2023-08-08T05:45:55;95747.00;;;23.18
32039;BMP280;18549;42.286;22.688;2023-08-08T05:48:22;95751.75;;;23.21
32039;BMP280;18549;42.286;22.688;2023-08-08T05:50:50;95751.47;;;23.17
32039;BMP280;18549;42.286;22.688;2023-08-08T05:53:17;95760.56;;;23.25
32039;BMP280;18549;42.286;22.688;2023-08-08T05:55:45;95757.09;;;23.26
32039;BMP280;18549;42.286;22.688;2023-08-08T05:58:13;95759.34;;;23.21
32039;BMP280;18549;42.286;22.688;2023-08-08T06:00:42;95768.84;;;23.19
32039;BMP280;18549;42.286;22.688;2023-08-08T06:03:10;95773.94;;;23.12
32039;BMP280;18549;42.286;22.688;2023-08-08T06:05:38;95772.59;;;23.01
32039;BMP280;18549;42.286;22.688;2023-08-08T06:08:05;95772.22;;;23.12
32039;BMP280;18549;42.286;22.688;2023-08-08T06:10:37;95773.88;;;23.19
32039;BMP280;18549;42.286;22.688;2023-08-08T06:13:04;95772.13;;;23.20
32039;BMP280;18549;42.286;22.688;2023-08-08T06:15:32;95773.81;;;23.27
32039;BMP280;18549;42.286;22.688;2023-08-08T06:18:01;95775.06;;;23.31
32039;BMP280;18549;42.286;22.688;2023-08-08T06:20:28;95770.37;;;23.20
32039;BMP280;18549;42.286;22.688;2023-08-08T06:22:56;95764.63;;;23.12
32039;BMP280;18549;42.286;22.688;2023-08-08T06:25:24;95765.91;;;23.08
32039;BMP280;18549;42.286;22.688;2023-08-08T06:27:52;95772.66;;;23.16
32039;BMP280;18549;42.286;22.688;2023-08-08T06:30:19;95774.34;;;23.01
32039;BMP280;18549;42.286;22.688;2023-08-08T06:32:47;95774.03;;;22.96
32039;BMP280;18549;42.286;22.688;2023-08-08T06:35:18;95769.38;;;23.07
32039;BMP280;18549;42.286;22.688;2023-08-08T06:37:45;95770.13;;;23.16
32039;BMP280;18549;42.286;22.688;2023-08-08T06:40:15;95774.91;;;23.11
32039;BMP280;18549;42.286;22.688;2023-08-08T06:42:43;95770.50;;;23.05
32039;BMP280;18549;42.286;22.688;2023-08-08T06:45:11;95770.78;;;23.10
32039;BMP280;18549;42.286;22.688;2023-08-08T06:47:40;95773.63;;;23.15
32039;BMP280;18549;42.286;22.688;2023-08-08T06:50:08;95779.28;;;23.17
32039;BMP280;18549;42.286;22.688;2023-08-08T06:52:38;95776.19;;;23.07
32039;BMP280;18549;42.286;22.688;2023-08-08T06:55:06;95770.28;;;23.14
32039;BMP280;18549;42.286;22.688;2023-08-08T06:57:34;95772.91;;;23.20
32039;BMP280;18549;42.286;22.688;2023-08-08T07:00:02;95770.06;;;23.23
32039;BMP280;18549;42.286;22.688;2023-08-08T07:02:32;95774.78;;;23.26
32039;BMP280;18549;42.286;22.688;2023-08-08T07:04:59;95772.91;;;23.20
32039;BMP280;18549;42.286;22.688;2023-08-08T07:07:27;95771.16;;;23.21
32039;BMP280;18549;42.286;22.688;2023-08-08T07:09:59;95774.81;;;23.18
32039;BMP280;18549;42.286;22.688;2023-08-08T07:12:26;95769.44;;;23.21
32039;BMP280;18549;42.286;22.688;2023-08-08T07:14:54;95768.22;;;23.17
32039;BMP280;18549;42.286;22.688;2023-08-08T07:17:21;95764.41;;;23.21
32039;BMP280;18549;42.286;22.688;2023-08-08T07:19:48;95758.13;;;23.32
32039;BMP280;18549;42.286;22.688;2023-08-08T07:22:16;95758.47;;;23.29
32039;BMP280;18549;42.286;22.688;2023-08-08T07:24:43;95765.84;;;23.38
32039;BMP280;18549;42.286;22.688;2023-08-08T07:27:49;95760.78;;;23.38
32039;BMP280;18549;42.286;22.688;2023-08-08T07:30:17;95758.31;;;23.30
32039;BMP280;18549;42.286;22.688;2023-08-08T07:32:45;95754.47;;;23.34
32039;BMP280;18549;42.286;22.688;2023-08-08T07:35:12;95751.00;;;23.35
32039;BMP280;18549;42.286;22.688;2023-08-08T07:37:41;95753.56;;;23.50
32039;BMP280;18549;42.286;22.688;2023-08-08T07:40:18;95753.09;;;23.46
32039;BMP280;18549;42.286;22.688;2023-08-08T07:42:47;95751.28;;;23.40
32039;BMP280;18549;42.286;22.688;2023-08-08T07:45:16;95748.81;;;23.54
32039;BMP280;18549;42.286;22.688;2023-08-08T07:47:44;95748.81;;;23.69
32039;BMP280;18549;42.286;22.688;2023-08-08T07:50:12;95747.03;;;23.77
32039;BMP280;18549;42.286;22.688;2023-08-08T07:52:40;95745.22;;;23.85
32039;BMP280;18549;42.286;22.688;2023-08-08T07:55:08;95748.53;;;23.86
32039;BMP280;18549;42.286;22.688;2023-08-08T07:57:36;95749.28;;;23.86
32039;BMP280;18549;42.286;22.688;2023-08-08T08:00:05;95756.13;;;24.00
32039;BMP280;18549;42.286;22.688;2023-08-08T08:02:39;95749.66;;;24.12
32039;BMP280;18549;42.286;22.688;2023-08-08T08:05:07;95757.63;;;24.23
32039;BMP280;18549;42.286;22.688;2023-08-08T08:07:35;95756.41;;;24.19
32039;BMP280;18549;42.286;22.688;2023-08-08T08:10:05;95752.75;;;24.22
32039;BMP280;18549;42.286;22.688;2023-08-08T08:12:34;95752.81;;;24.28
32039;BMP280;18549;42.286;22.688;2023-08-08T08:15:03;95752.50;;;24.31
32039;BMP280;18549;42.286;22.688;2023-08-08T08:17:30;95757.66;;;24.38
32039;BMP280;18549;42.286;22.688;2023-08-08T08:19:59;95752.81;;;24.43
32039;BMP280;18549;42.286;22.688;2023-08-08T08:22:31;95756.56;;;24.47
32039;BMP280;18549;42.286;22.688;2023-08-08T08:24:58;95753.56;;;24.57
32039;BMP280;18549;42.286;22.688;2023-08-08T08:27:25;95751.66;;;24.59
32039;BMP280;18549;42.286;22.688;2023-08-08T08:29:53;95750.88;;;24.59
32039;BMP280;18549;42.286;22.688;2023-08-08T08:32:20;95754.44;;;24.64
32039;BMP280;18549;42.286;22.688;2023-08-08T08:34:47;95754.09;;;24.67
32039;BMP280;18549;42.286;22.688;2023-08-08T08:37:16;95756.41;;;24.83
32039;BMP280;18549;42.286;22.688;2023-08-08T08:39:44;95760.69;;;24.83
32039;BMP280;18549;42.286;22.688;2023-08-08T08:42:14;95766.66;;;24.75
32039;BMP280;18549;42.286;22.688;2023-08-08T08:44:42;95765.88;;;24.75
32039;BMP280;18549;42.286;22.688;2023-08-08T08:47:15;95760.69;;;24.83
32039;BMP280;18549;42.286;22.688;2023-08-08T08:49:45;95760.16;;;24.87
32039;BMP280;18549;42.286;22.688;2023-08-08T08:52:13;95759.25;;;24.88
32039;BMP280;18549;42.286;22.688;2023-08-08T08:54:42;95755.13;;;24.73
32039;BMP280;18549;42.286;22.688;2023-08-08T08:57:09;95751.09;;;24.78
32039;BMP280;18549;42.286;22.688;2023-08-08T08:59:37;95754.66;;;24.84
32039;BMP280;18549;42.286;22.688;2023-08-08T09:02:06;95759.53;;;24.85
32039;BMP280;18549;42.286;22.688;2023-08-08T09:04:35;95746.59;;;24.94
32039;BMP280;18549;42.286;22.688;2023-08-08T09:07:05;95758.75;;;24.99
32039;BMP280;18549;42.286;22.688;2023-08-08T09:09:33;95763.87;;;25.05
32039;BMP280;18549;42.286;22.688;2023-08-08T09:12:04;95758.56;;;25.00
32039;BMP280;18549;42.286;22.688;2023-08-08T09:14:32;95757.78;;;25.00
32039;BMP280;18549;42.286;22.688;2023-08-08T09:17:00;95758.09;;;25.11
32039;BMP280;18549;42.286;22.688;2023-08-08T09:19:28;95760.03;;;25.09
32039;BMP280;18549;42.286;22.688;2023-08-08T09:21:55;95758.03;;;25.05
32039;BMP280;18549;42.286;22.688;2023-08-08T09:24:23;95761.34;;;25.05
32039;BMP280;18549;42.286;22.688;2023-08-08T09:26:51;95761.19;;;25.07
32039;BMP280;18549;42.286;22.688;2023-08-08T09:29:20;95759.06;;;25.10
32039;BMP280;18549;42.286;22.688;2023-08-08T09:31:50;95759.78;;;25.04
32039;BMP280;18549;42.286;22.688;2023-08-08T09:34:17;95770.25;;;25.16
32039;BMP280;18549;42.286;22.688;2023-08-08T09:36:45;95762.34;;;25.04
32039;BMP280;18549;42.286;22.688;2023-08-08T09:39:16;95756.28;;;25.05
32039;BMP280;18549;42.286;22.688;2023-08-08T09:41:45;95752.41;;;24.88
32039;BMP280;18549;42.286;22.688;2023-08-08T09:44:14;95761.78;;;25.09
32039;BMP280;18549;42.286;22.688;2023-08-08T09:46:43;95760.16;;;25.22
32039;BMP280;18549;42.286;22.688;2023-08-08T09:49:11;95761.72;;;25.23
32039;BMP280;18549;42.286;22.688;2023-08-08T09:51:40;95762.50;;;25.03
32039;BMP280;18549;42.286;22.688;2023-08-08T09:54:08;95762.03;;;25.14
32039;BMP280;18549;42.286;22.688;2023-08-08T09:56:37;95759.97;;;25.23
32039;BMP280;18549;42.286;22.688;2023-08-08T09:59:06;95747.47;;;25.43
32039;BMP280;18549;42.286;22.688;2023-08-08T10:01:35;95740.94;;;25.54
32039;BMP280;18549;42.286;22.688;2023-08-08T10:04:07;95749.16;;;25.56
32039;BMP280;18549;42.286;22.688;2023-08-08T10:06:36;95743.03;;;25.72
32039;BMP280;18549;42.286;22.688;2023-08-08T10:09:04;95744.66;;;25.79
32039;BMP280;18549;42.286;22.688;2023-08-08T10:11:32;95747.91;;;25.73
32039;BMP280;18549;42.286;22.688;2023-08-08T10:14:02;95743.44;;;25.75
32039;BMP280;18549;42.286;22.688;2023-08-08T10:16:32;95749.31;;;25.76
32039;BMP280;18549;42.286;22.688;2023-08-08T10:19:03;95743.50;;;25.88
32039;BMP280;18549;42.286;22.688;2023-08-08T10:21:34;95750.56;;;25.92
32039;BMP280;18549;42.286;22.688;2023-08-08T10:24:06;95741.41;;;25.91
32039;BMP280;18549;42.286;22.688;2023-08-08T10:26:50;95740.41;;;25.86
32039;BMP280;18549;42.286;22.688;2023-08-08T10:29:18;95750.03;;;25.70
32039;BMP280;18549;42.286;22.688;2023-08-08T10:31:51;95745.00;;;25.76
32039;BMP280;18549;42.286;22.688;2023-08-08T10:34:20;95748.94;;;25.79
32039;BMP280;18549;42.286;22.688;2023-08-08T10:36:52;95739.47;;;25.93
32039;BMP280;18549;42.286;22.688;2023-08-08T10:39:21;95745.22;;;26.08
32039;BMP280;18549;42.286;22.688;2023-08-08T10:41:49;95729.47;;;26.19
32039;BMP280;18549;42.286;22.688;2023-08-08T10:44:24;95730.69;;;26.23
32039;BMP280;18549;42.286;22.688;2023-08-08T10:46:52;95734.44;;;26.06
32039;BMP280;18549;42.286;22.688;2023-08-08T10:49:22;95728.94;;;25.96
32039;BMP280;18549;42.286;22.688;2023-08-08T10:51:52;95728.78;;;26.04
32039;BMP280;18549;42.286;22.688;2023-08-08T10:54:22;95725.69;;;26.15
32039;BMP280;18549;42.286;22.688;2023-08-08T10:56:56;95733.31;;;26.15
32039;BMP280;18549;42.286;22.688;2023-08-08T10:59:27;95733.00;;;26.18
32039;BMP280;18549;42.286;22.688;2023-08-08T11:01:57;95722.88;;;26.31
32039;BMP280;18549;42.286;22.688;2023-08-08T11:04:27;95724.72;;;26.43
32039;BMP280;18549;42.286;22.688;2023-08-08T11:06:57;95717.59;;;26.26
32039;BMP280;18549;42.286;22.688;2023-08-08T11:09:25;95726.97;;;26.25
32039;BMP280;18549;42.286;22.688;2023-08-08T11:11:52;95737.59;;;26.42
32039;BMP280;18549;42.286;22.688;2023-08-08T11:14:20;95726.69;;;26.48
32039;BMP280;18549;42.286;22.688;2023-08-08T11:16:50;95730.63;;;26.63
32039;BMP280;18549;42.286;22.688;2023-08-08T11:19:18;95727.81;;;26.45
32039;BMP280;18549;42.286;22.688;2023-08-08T11:21:46;95731.63;;;26.22
32039;BMP280;18549;42.286;22.688;2023-08-08T11:24:16;95735.19;;;26.27
32039;BMP280;18549;42.286;22.688;2023-08-08T11:26:44;95736.16;;;25.99
32039;BMP280;18549;42.286;22.688;2023-08-08T11:29:13;95727.59;;;26.00
32039;BMP280;18549;42.286;22.688;2023-08-08T11:31:41;95726.69;;;26.14
32039;BMP280;18549;42.286;22.688;2023-08-08T11:34:09;95728.69;;;26.19
32039;BMP280;18549;42.286;22.688;2023-08-08T11:36:38;95726.19;;;26.25
32039;BMP280;18549;42.286;22.688;2023-08-08T11:39:07;95731.09;;;26.33
32039;BMP280;18549;42.286;22.688;2023-08-08T11:41:37;95726.06;;;26.39
32039;BMP280;18549;42.286;22.688;2023-08-08T11:44:06;95727.06;;;26.51
32039;BMP280;18549;42.286;22.688;2023-08-08T11:46:34;95718.94;;;26.75
32039;BMP280;18549;42.286;22.688;2023-08-08T11:49:03;95729.38;;;26.92
32039;BMP280;18549;42.286;22.688;2023-08-08T11:51:32;95726.47;;;27.02
32039;BMP280;18549;42.286;22.688;2023-08-08T11:54:01;95711.59;;;27.24
32039;BMP280;18549;42.286;22.688;2023-08-08T11:56:33;95718.13;;;27.40
32039;BMP280;18549;42.286;22.688;2023-08-08T11:59:05;95712.44;;;27.51
32039;BMP280;18549;42.286;22.688;2023-08-08T12:01:50;95704.59;;;27.52
32039;BMP280;18549;42.286;22.688;2023-08-08T12:04:20;95701.47;;;27.50
32039;BMP280;18549;42.286;22.688;2023-08-08T12:06:49;95691.31;;;27.44
32039;BMP280;18549;42.286;22.688;2023-08-08T12:09:17;95694.81;;;27.55
32039;BMP280;18549;42.286;22.688;2023-08-08T12:11:46;95678.72;;;27.68
32039;BMP280;18549;42.286;22.688;2023-08-08T12:14:15;95680.25;;;27.82
32039;BMP280;18549;42.286;22.688;2023-08-08T12:16:42;95686.13;;;27.88
32039;BMP280;18549;42.286;22.688;2023-08-08T12:19:10;95689.84;;;27.92
32039;BMP280;18549;42.286;22.688;2023-08-08T12:21:40;95685.72;;;27.98
32039;BMP280;18549;42.286;22.688;2023-08-08T12:24:07;95699.47;;;28.03
32039;BMP280;18549;42.286;22.688;2023-08-08T12:26:34;95690.22;;;28.15
32039;BMP280;18549;42.286;22.688;2023-08-08T12:29:02;95695.13;;;28.10
32039;BMP280;18549;42.286;22.688;2023-08-08T12:31:32;95695.34;;;28.02
32039;BMP280;18549;42.286;22.688;2023-08-08T12:34:00;95685.75;;;27.79
32039;BMP280;18549;42.286;22.688;2023-08-08T12:36:28;95692.03;;;27.70
32039;BMP280;18549;42.286;22.688;2023-08-08T12:38:55;95676.94;;;27.75
32039;BMP280;18549;42.286;22.688;2023-08-08T12:41:23;95678.87;;;27.86
32039;BMP280;18549;42.286;22.688;2023-08-08T12:43:51;95681.81;;;28.02
32039;BMP280;18549;42.286;22.688;2023-08-08T12:46:19;95685.09;;;28.15
32039;BMP280;18549;42.286;22.688;2023-08-08T12:48:50;95691.59;;;28.11
32039;BMP280;18549;42.286;22.688;2023-08-08T12:51:19;95693.97;;;28.06
32039;BMP280;18549;42.286;22.688;2023-08-08T12:53:47;95686.28;;;28.13
32039;BMP280;18549;42.286;22.688;2023-08-08T12:56:17;95688.66;;;28.08
32039;BMP280;18549;42.286;22.688;2023-08-08T12:58:49;95676.66;;;28.21
32039;BMP280;18549;42.286;22.688;2023-08-08T13:01:16;95680.53;;;28.30
32039;BMP280;18549;42.286;22.688;2023-08-08T13:03:44;95674.66;;;28.29
32039;BMP280;18549;42.286;22.688;2023-08-08T13:06:13;95682.28;;;28.36
32039;BMP280;18549;42.286;22.688;2023-08-08T13:08:40;95671.91;;;28.31
32039;BMP280;18549;42.286;22.688;2023-08-08T13:11:08;95666.78;;;28.37
32039;BMP280;18549;42.286;22.688;2023-08-08T13:13:35;95669.56;;;28.23
32039;BMP280;18549;42.286;22.688;2023-08-08T13:16:04;95661.28;;;28.40
32039;BMP280;18549;42.286;22.688;2023-08-08T13:18:31;95662.81;;;28.48
32039;BMP280;18549;42.286;22.688;2023-08-08T13:20:59;95662.19;;;28.52
32039;BMP280;18549;42.286;22.688;2023-08-08T13:23:28;95656.09;;;28.59
32039;BMP280;18549;42.286;22.688;2023-08-08T13:25:55;95656.50;;;28.63
32039;BMP280;18549;42.286;22.688;2023-08-08T13:28:23;95658.00;;;28.70
32039;BMP280;18549;42.286;22.688;2023-08-08T13:30:51;95657.37;;;28.75
32039;BMP280;18549;42.286;22.688;2023-08-08T13:33:19;95652.47;;;28.73
32039;BMP280;18549;42.286;22.688;2023-08-08T13:35:46;95659.16;;;28.74
32039;BMP280;18549;42.286;22.688;2023-08-08T13:38:14;95655.84;;;28.74
32039;BMP280;18549;42.286;22.688;2023-08-08T13:40:43;95643.88;;;28.74
32039;BMP280;18549;42.286;22.688;2023-08-08T13:43:10;95643.44;;;28.77
32039;BMP280;18549;42.286;22.688;2023-08-08T13:45:38;95643.38;;;28.90
32039;BMP280;18549;42.286;22.688;2023-08-08T13:48:06;95649.66;;;28.87
32039;BMP280;18549;42.286;22.688;2023-08-08T13:50:33;95648.06;;;28.93
32039;BMP280;18549;42.286;22.688;2023-08-08T13:53:01;95650.91;;;29.03
32039;BMP280;18549;42.286;22.688;2023-08-08T13:55:29;95649.09;;;29.10
32039;BMP280;18549;42.286;22.688;2023-08-08T13:57:58;95644.19;;;29.15
32039;BMP280;18549;42.286;22.688;2023-08-08T14:00:26;95647.38;;;29.04
32039;BMP280;18549;42.286;22.688;2023-08-08T14:02:54;95657.50;;;28.86
32039;BMP280;18549;42.286;22.688;2023-08-08T14:05:21;95659.88;;;28.87
32039;BMP280;18549;42.286;22.688;2023-08-08T14:07:48;95654.69;;;28.94
32039;BMP280;18549;42.286;22.688;2023-08-08T14:10:16;95649.66;;;28.87